NERRS METEOROLOGICAL SITE AT GRAND BAY HADS current weather conditions

sailwx.info

Wind from 331 at 5 knots gusting 7

Air temperature 27.2° C
Dewpoint 25.8° C

Last reported at 2019-Jul-18 12:45 UTC.
Time now 2019-Jul-18 13:47 UTC

Location: N 30°21' W 088°25'.
View on Google Maps.

See reports from other nearby stations

  
Tides and Currents Weather Stations Pressure Air Temp Water Temp Dewpoint Dewpoint Depression Visibility Wind Speed Wind Dir Waves Ship Positions
date/time (UTC)wind fromknots sea level pressurealtimeterstation pressurevisibilityair tempwater tempwave heightnotes
2019-Jul-18 12:45 331 5 gusting 7 27.2
2019-Jul-18 11:45 325 2 gusting 3 26.9
2019-Jul-18 10:45 001 1 gusting 3 26.8
2019-Jul-18 09:45 350 3 gusting 4 27.3
2019-Jul-18 08:45 275 2 gusting 3 28.8
2019-Jul-18 07:45 293 2 gusting 4 28.7
2019-Jul-18 06:45 225 5 gusting 8 29.6
2019-Jul-18 05:45 219 6 gusting 8 29.8
2019-Jul-18 04:45 212 7 gusting 10 30.0
2019-Jul-18 03:45 215 8 gusting 10 30.0
2019-Jul-18 02:45 214 7 gusting 9 30.1
2019-Jul-18 01:45 200 7 gusting 9 30.2
2019-Jul-18 00:45 207 7 gusting 9 30.3
2019-Jul-17 23:45 211 7 gusting 10 30.7
2019-Jul-17 22:45 207 8 gusting 11 30.7
2019-Jul-17 21:45 215 8 gusting 11 30.8
2019-Jul-17 20:45 202 7 gusting 10 30.5
2019-Jul-17 19:45 209 7 gusting 10 30.5
2019-Jul-17 18:45 208 6 gusting 8 30.3
2019-Jul-17 17:45 210 7 gusting 9 29.9
2019-Jul-17 16:45 200 7 gusting 9 29.4
2019-Jul-17 15:45 201 6 gusting 8 29.6
2019-Jul-17 14:45 208 4 gusting 6 29.9
2019-Jul-17 13:45 227 4 gusting 5 29.6
2019-Jul-17 12:45 260 3 gusting 5 29.0
2019-Jul-17 11:45 272 3 gusting 6 28.0
2019-Jul-17 10:45 222 6 gusting 8 28.0
2019-Jul-17 09:45 232 6 gusting 8 28.1
2019-Jul-17 08:45 219 7 gusting 10 28.3
2019-Jul-17 07:45 207 8 gusting 11 28.6
2019-Jul-17 06:45 195 8 gusting 11 28.8
2019-Jul-17 05:45 188 8 gusting 11 29.0
2019-Jul-17 04:45 181 7 gusting 10 29.2
2019-Jul-17 03:45 173 8 gusting 10 29.3
2019-Jul-17 02:45 195 5 gusting 8 29.3
2019-Jul-17 01:45 196 6 gusting 8 29.4
2019-Jul-17 00:45 202 6 gusting 9 29.5
2019-Jul-16 23:45 198 5 gusting 8 29.8
2019-Jul-16 22:45 194 7 gusting 10 30.0
2019-Jul-16 21:45 198 7 gusting 9 30.2
2019-Jul-16 20:45 180 8 gusting 10 29.7
2019-Jul-16 19:45 178 8 gusting 10 29.5
2019-Jul-16 18:45 180 6 gusting 9 29.6
2019-Jul-16 17:45 196 6 gusting 8 29.6
2019-Jul-16 16:45 196 6 gusting 8 29.4
2019-Jul-16 15:45 200 4 gusting 6 29.3
2019-Jul-16 14:45 201 6 gusting 7 29.2
2019-Jul-16 13:45 207 4 gusting 6 29.1